createdAt,value
2018-10-01T00:00:44.990Z,6.73
2018-10-01T00:03:14.422Z,6.60
2018-10-01T00:05:43.701Z,6.17
2018-10-01T00:08:13.120Z,6.23
2018-10-01T00:10:42.433Z,7.10
2018-10-01T00:13:11.761Z,6.80
2018-10-01T00:15:41.151Z,6.87
2018-10-01T00:18:10.674Z,6.30
2018-10-01T00:20:45.265Z,6.50
2018-10-01T00:23:15.080Z,6.90
2018-10-01T00:25:44.508Z,6.37
2018-10-01T00:28:13.894Z,6.23
2018-10-01T00:30:43.236Z,6.60
2018-10-01T00:33:12.623Z,6.33
2018-10-01T00:35:41.996Z,6.33
2018-10-01T00:38:11.267Z,6.17
2018-10-01T00:40:40.578Z,6.40
2018-10-01T00:43:09.875Z,5.80
2018-10-01T00:45:39.760Z,5.90
2018-10-01T00:48:09.040Z,5.37
2018-10-01T00:50:38.291Z,5.53
2018-10-01T00:53:07.657Z,5.73
2018-10-01T00:55:36.953Z,5.13
2018-10-01T00:58:06.668Z,5.30
2018-10-01T01:00:36.107Z,5.50
2018-10-01T01:03:05.677Z,5.00
2018-10-01T01:05:34.977Z,4.70
2018-10-01T01:08:04.269Z,4.37
2018-10-01T01:10:34.024Z,3.90
2018-10-01T01:13:03.288Z,4.00
2018-10-01T01:15:32.589Z,4.40
2018-10-01T01:18:01.889Z,3.90
2018-10-01T01:20:31.170Z,4.00
2018-10-01T01:23:00.753Z,3.50
2018-10-01T01:25:30.006Z,3.93
2018-10-01T01:27:59.586Z,3.57
2018-10-01T01:30:28.900Z,3.40
2018-10-01T01:32:58.190Z,3.57
2018-10-01T01:35:27.527Z,3.50
2018-10-01T01:37:56.865Z,3.93
2018-10-01T01:40:26.139Z,3.77
2018-10-01T01:42:55.668Z,3.53
2018-10-01T01:45:25.194Z,3.93
2018-10-01T01:47:54.499Z,3.53
2018-10-01T01:50:23.759Z,4.10
2018-10-01T01:52:53.072Z,3.63
2018-10-01T01:55:22.806Z,3.93
2018-10-01T01:57:52.132Z,4.27
2018-10-01T02:00:21.439Z,4.00
2018-10-01T02:02:50.779Z,3.90
2018-10-01T02:05:20.075Z,4.17
2018-10-01T02:07:49.389Z,3.77
2018-10-01T02:10:18.701Z,3.63
2018-10-01T02:12:48.011Z,3.70
2018-10-01T02:15:17.355Z,3.63
2018-10-01T02:17:46.699Z,3.97
2018-10-01T02:20:16.036Z,4.50
2018-10-01T02:22:45.330Z,3.97
2018-10-01T02:25:14.773Z,3.87
2018-10-01T02:27:44.160Z,4.80
2018-10-01T02:30:13.522Z,3.57
2018-10-01T02:32:42.943Z,4.00
2018-10-01T02:35:12.254Z,3.60
2018-10-01T02:37:41.484Z,3.57
2018-10-01T02:40:10.875Z,4.03
2018-10-01T02:42:40.298Z,3.53
2018-10-01T02:45:09.870Z,3.50
2018-10-01T02:47:39.227Z,3.00
2018-10-01T02:50:09.076Z,3.20
2018-10-01T02:52:43.645Z,3.17
2018-10-01T02:55:13.005Z,2.80
2018-10-01T02:57:42.312Z,2.53
2018-10-01T03:00:11.697Z,3.00
2018-10-01T03:02:41.200Z,3.00
2018-10-01T03:05:10.519Z,2.73
2018-10-01T03:07:39.930Z,3.30
2018-10-01T03:10:09.259Z,3.10
2018-10-01T03:12:38.585Z,2.03
2018-10-01T03:15:08.056Z,2.77
2018-10-01T03:17:37.344Z,2.60
2018-10-01T03:20:07.876Z,2.40
2018-10-01T03:22:37.144Z,2.60
2018-10-01T03:25:06.550Z,2.37
2018-10-01T03:27:35.822Z,2.50
2018-10-01T03:30:05.272Z,2.87
2018-10-01T03:32:34.601Z,2.77
2018-10-01T03:35:04.277Z,3.10
2018-10-01T03:37:33.548Z,2.67
2018-10-01T03:40:02.985Z,2.70
2018-10-01T03:42:32.520Z,2.63
2018-10-01T03:45:01.937Z,2.13
2018-10-01T03:47:31.209Z,2.47
2018-10-01T03:50:01.627Z,2.47
2018-10-01T03:52:30.819Z,2.30
2018-10-01T03:55:00.156Z,2.53
2018-10-01T03:57:29.600Z,2.67
2018-10-01T03:59:58.919Z,2.60
2018-10-01T04:02:28.256Z,3.00
2018-10-01T04:04:58.615Z,2.10
2018-10-01T04:07:28.128Z,2.57
2018-10-01T04:09:57.549Z,2.67
2018-10-01T04:12:26.857Z,2.50
2018-10-01T04:14:56.279Z,2.67
2018-10-01T04:17:25.621Z,2.07
2018-10-01T04:19:54.858Z,2.47
2018-10-01T04:22:28.219Z,2.40
2018-10-01T04:24:57.829Z,2.57
2018-10-01T04:27:27.129Z,2.53
2018-10-01T04:29:56.449Z,2.47
2018-10-01T04:32:25.753Z,3.60
2018-10-01T04:34:55.036Z,2.63
2018-10-01T04:37:24.348Z,2.87
2018-10-01T04:39:53.688Z,2.70
2018-10-01T04:42:22.982Z,3.20
2018-10-01T04:44:52.488Z,3.27
2018-10-01T04:47:21.812Z,2.80
2018-10-01T04:49:51.108Z,2.87
2018-10-01T04:52:20.693Z,3.17
2018-10-01T04:54:50.024Z,2.87
2018-10-01T04:57:19.291Z,3.10
2018-10-01T04:59:48.627Z,2.30
2018-10-01T05:02:18.024Z,3.33
2018-10-01T05:04:47.321Z,2.17
2018-10-01T05:07:16.767Z,2.23
2018-10-01T05:09:46.019Z,2.80
2018-10-01T05:12:15.310Z,2.67
2018-10-01T05:14:45.367Z,2.50
2018-10-01T05:17:14.780Z,3.00
2018-10-01T05:19:44.020Z,2.67
2018-10-01T05:22:13.484Z,2.53
2018-10-01T05:24:42.764Z,3.10
2018-10-01T05:27:12.124Z,2.70
2018-10-01T05:29:41.394Z,3.10
2018-10-01T05:32:10.651Z,2.93
2018-10-01T05:34:40.033Z,2.80
2018-10-01T05:37:09.759Z,3.37
2018-10-01T05:39:39.000Z,2.73
2018-10-01T05:42:08.301Z,2.50
2018-10-01T05:44:37.639Z,2.60
2018-10-01T05:47:07.021Z,2.67
2018-10-01T05:49:36.291Z,2.90
2018-10-01T05:52:05.579Z,2.67
2018-10-01T05:54:35.091Z,2.37
2018-10-01T05:57:04.326Z,2.33
2018-10-01T05:59:33.723Z,2.40
2018-10-01T06:02:03.158Z,2.70
2018-10-01T06:04:32.393Z,2.50
2018-10-01T06:07:01.815Z,2.80
2018-10-01T06:09:31.138Z,2.00
2018-10-01T06:12:00.493Z,2.90
2018-10-01T06:14:29.851Z,2.40
2018-10-01T06:16:59.146Z,2.20
2018-10-01T06:19:28.511Z,2.80
2018-10-01T06:21:57.827Z,2.57
2018-10-01T06:24:27.138Z,2.20
2018-10-01T06:26:56.746Z,2.60
2018-10-01T06:29:26.087Z,2.37
2018-10-01T06:31:55.455Z,2.80
2018-10-01T06:34:24.855Z,2.40
2018-10-01T06:36:54.229Z,2.50
2018-10-01T06:39:23.591Z,2.17
2018-10-01T06:41:53.331Z,2.03
2018-10-01T06:44:22.558Z,2.10
2018-10-01T06:46:51.831Z,2.17
2018-10-01T06:49:21.116Z,2.40
2018-10-01T06:51:50.437Z,2.17
2018-10-01T06:54:19.986Z,2.33
2018-10-01T06:56:49.306Z,2.57
2018-10-01T06:59:18.607Z,3.00
2018-10-01T07:01:47.851Z,2.10
2018-10-01T07:04:17.103Z,2.40
2018-10-01T07:06:46.353Z,2.00
2018-10-01T07:09:15.627Z,2.53
2018-10-01T07:11:45.110Z,2.20
2018-10-01T07:14:14.335Z,1.90
2018-10-01T07:16:43.667Z,2.00
2018-10-01T07:19:12.967Z,2.57
2018-10-01T07:21:42.264Z,2.43
2018-10-01T07:26:49.639Z,1.70
2018-10-01T07:29:19.188Z,1.70
2018-10-01T07:31:48.851Z,2.07
2018-10-01T07:34:18.127Z,1.70
2018-10-01T07:36:47.404Z,1.50
2018-10-01T07:39:16.728Z,1.40
2018-10-01T07:41:46.162Z,1.70
2018-10-01T07:44:15.513Z,2.37
2018-10-01T07:46:44.823Z,1.47
2018-10-01T07:49:14.186Z,2.10
2018-10-01T07:51:43.618Z,1.70
2018-10-01T07:54:12.945Z,2.10
2018-10-01T07:56:42.450Z,1.73
2018-10-01T07:59:11.926Z,1.50
2018-10-01T08:01:41.391Z,1.60
2018-10-01T08:04:10.687Z,1.33
2018-10-01T08:06:40.288Z,1.33
2018-10-01T08:09:10.737Z,1.37
2018-10-01T08:11:40.447Z,1.40
2018-10-01T08:14:10.202Z,1.13
2018-10-01T08:16:39.487Z,1.40
2018-10-01T08:19:08.797Z,1.30
2018-10-01T08:21:38.154Z,1.27
2018-10-01T08:24:07.548Z,1.10
2018-10-01T08:26:37.079Z,0.93
2018-10-01T08:29:06.655Z,1.10
2018-10-01T08:31:35.950Z,1.23
2018-10-01T08:34:05.260Z,1.10
2018-10-01T08:36:34.698Z,1.30
2018-10-01T08:39:06.796Z,1.20
2018-10-01T08:41:36.233Z,1.17
2018-10-01T08:44:05.521Z,1.13
2018-10-01T08:46:35.451Z,1.10
2018-10-01T08:49:12.079Z,1.20
2018-10-01T08:51:47.429Z,1.03
2018-10-01T08:54:33.752Z,1.30
2018-10-01T08:57:03.260Z,1.37
2018-10-01T08:59:33.330Z,1.17
2018-10-01T09:02:03.947Z,1.33
2018-10-01T09:04:33.844Z,1.20
2018-10-01T09:07:03.422Z,1.20
2018-10-01T09:09:32.829Z,1.13
2018-10-01T09:12:02.173Z,1.37
2018-10-01T09:14:31.536Z,1.27
2018-10-01T09:17:00.878Z,1.33
2018-10-01T09:19:30.144Z,1.10
2018-10-01T09:21:59.460Z,1.17
2018-10-01T09:24:29.315Z,0.80
2018-10-01T09:26:58.614Z,0.97
2018-10-01T09:29:27.978Z,1.00
2018-10-01T09:31:57.179Z,0.80
2018-10-01T09:34:26.516Z,0.87
2018-10-01T09:36:55.791Z,1.00
2018-10-01T09:39:25.047Z,1.10
2018-10-01T09:41:54.515Z,1.20
2018-10-01T09:44:23.830Z,0.90
2018-10-01T09:46:53.177Z,1.40
2018-10-01T09:49:22.508Z,0.87
2018-10-01T09:51:51.813Z,1.13
2018-10-01T09:54:21.031Z,1.23
2018-10-01T09:56:50.383Z,1.00
2018-10-01T09:59:19.664Z,1.10
2018-10-01T10:01:49.045Z,0.70
2018-10-01T10:04:18.425Z,0.97
2018-10-01T10:06:47.695Z,1.00
2018-10-01T10:09:16.959Z,0.93
2018-10-01T10:11:46.302Z,0.90
2018-10-01T10:14:15.706Z,0.83
2018-10-01T10:16:45.185Z,1.07
2018-10-01T10:19:14.362Z,1.03
2018-10-01T10:21:43.640Z,1.00
2018-10-01T10:24:12.930Z,0.53
2018-10-01T10:26:42.223Z,0.60
2018-10-01T10:29:11.778Z,0.50
2018-10-01T10:31:41.169Z,0.70
2018-10-01T10:34:10.585Z,0.60
2018-10-01T10:36:39.842Z,0.60
2018-10-01T10:39:11.882Z,0.40
2018-10-01T10:41:42.241Z,0.40
2018-10-01T10:44:11.621Z,0.60
2018-10-01T10:46:40.934Z,0.50
2018-10-01T10:49:10.554Z,0.27
2018-10-01T10:51:40.066Z,0.60
2018-10-01T10:54:09.344Z,0.60
2018-10-01T10:56:38.668Z,0.70
2018-10-01T10:59:07.995Z,0.80
2018-10-01T11:01:37.340Z,0.73
2018-10-01T11:04:07.220Z,0.90
2018-10-01T11:06:36.741Z,0.80
2018-10-01T11:09:09.038Z,0.97
2018-10-01T11:11:38.560Z,1.00
2018-10-01T11:14:08.414Z,0.90
2018-10-01T11:16:37.580Z,0.90
2018-10-01T11:19:07.090Z,1.07
2018-10-01T11:21:36.287Z,0.80
2018-10-01T11:24:05.651Z,1.17
2018-10-01T11:26:34.970Z,0.93
2018-10-01T11:29:04.320Z,1.00
2018-10-01T11:31:33.564Z,0.80
2018-10-01T11:34:02.863Z,1.20
2018-10-01T11:36:32.082Z,1.00
2018-10-01T11:39:01.396Z,0.80
2018-10-01T11:41:30.718Z,1.00
2018-10-01T11:43:59.970Z,1.00
2018-10-01T11:46:29.258Z,1.17
2018-10-01T11:48:58.583Z,1.10
2018-10-01T11:51:27.923Z,0.80
2018-10-01T11:53:57.218Z,0.80
2018-10-01T11:56:26.711Z,1.03
2018-10-01T11:58:56.050Z,1.10
2018-10-01T12:01:25.360Z,0.80
2018-10-01T12:03:54.712Z,0.93
2018-10-01T12:06:28.959Z,1.10
2018-10-01T12:08:58.309Z,1.10
2018-10-01T12:11:27.588Z,1.10
2018-10-01T12:13:57.029Z,1.03
2018-10-01T12:16:26.362Z,1.20
2018-10-01T12:18:55.651Z,1.10
2018-10-01T12:21:24.877Z,1.47
2018-10-01T12:23:54.196Z,1.00
2018-10-01T12:26:23.524Z,1.30
2018-10-01T12:28:52.779Z,1.80
2018-10-01T12:31:22.030Z,1.00
2018-10-01T12:33:51.352Z,1.80
2018-10-01T12:36:21.719Z,1.10
2018-10-01T12:38:51.048Z,1.60
2018-10-01T12:41:20.409Z,1.50
2018-10-01T12:43:49.735Z,1.07
2018-10-01T12:46:19.003Z,0.90
2018-10-01T12:48:48.281Z,0.93
2018-10-01T12:51:17.612Z,1.37
2018-10-01T12:53:46.843Z,1.00
2018-10-01T12:56:16.099Z,1.00
2018-10-01T12:58:45.407Z,0.93
2018-10-01T13:01:14.740Z,1.17
2018-10-01T13:03:44.028Z,1.00
2018-10-01T13:06:13.427Z,1.00
2018-10-01T13:08:42.900Z,0.90
2018-10-01T13:11:12.283Z,1.00
2018-10-01T13:13:41.571Z,0.70
2018-10-01T13:16:10.989Z,0.67
2018-10-01T13:18:40.353Z,1.00
2018-10-01T13:21:09.667Z,0.93
2018-10-01T13:23:38.965Z,1.10
2018-10-01T13:26:08.492Z,1.30
2018-10-01T13:28:37.787Z,0.90
2018-10-01T13:31:07.182Z,1.47
2018-10-01T13:33:36.839Z,1.50
2018-10-01T13:36:06.143Z,1.00
2018-10-01T13:38:35.451Z,1.47
2018-10-01T13:41:04.807Z,1.10
2018-10-01T13:43:34.132Z,1.60
2018-10-01T13:46:03.535Z,1.27
2018-10-01T13:48:32.783Z,1.30
2018-10-01T13:51:02.080Z,1.10
2018-10-01T13:53:31.449Z,1.63
2018-10-01T13:56:00.790Z,1.37
2018-10-01T13:58:30.068Z,1.67
2018-10-01T14:00:59.409Z,1.50
2018-10-01T14:03:28.758Z,1.50
2018-10-01T14:05:58.103Z,1.40
2018-10-01T14:08:27.420Z,1.33
2018-10-01T14:10:56.786Z,1.30
2018-10-01T14:13:26.264Z,1.53
2018-10-01T14:15:55.508Z,1.43
2018-10-01T14:18:24.871Z,1.43
2018-10-01T14:20:54.274Z,1.30
2018-10-01T14:23:23.891Z,1.43
2018-10-01T14:25:53.525Z,1.70
2018-10-01T14:28:22.944Z,1.07
2018-10-01T14:30:52.274Z,1.33
2018-10-01T14:33:21.616Z,1.30
2018-10-01T14:35:50.871Z,1.17
2018-10-01T14:38:20.624Z,1.07
2018-10-01T14:40:49.882Z,1.07
2018-10-01T14:43:19.152Z,0.90
2018-10-01T14:45:48.443Z,1.10
2018-10-01T14:48:17.834Z,1.10
2018-10-01T14:50:47.074Z,1.13
2018-10-01T14:53:16.398Z,0.80
2018-10-01T14:55:45.755Z,1.20
2018-10-01T14:58:15.068Z,1.10
2018-10-01T15:00:45.537Z,1.17
2018-10-01T15:03:14.789Z,1.23
2018-10-01T15:05:44.250Z,1.20
2018-10-01T15:08:13.568Z,1.40
2018-10-01T15:10:42.936Z,1.00
2018-10-01T15:13:12.298Z,1.40
2018-10-01T15:15:41.643Z,1.10
2018-10-01T15:18:11.201Z,1.17
2018-10-01T15:20:40.503Z,0.87
2018-10-01T15:23:09.782Z,0.70
2018-10-01T15:25:39.926Z,1.00
2018-10-01T15:28:09.458Z,0.80
2018-10-01T15:30:38.837Z,0.87
2018-10-01T15:33:10.053Z,1.20
2018-10-01T15:35:40.403Z,0.80
2018-10-01T15:38:11.791Z,1.10
2018-10-01T15:40:41.114Z,0.90
2018-10-01T15:43:10.620Z,0.80
2018-10-01T15:45:40.001Z,1.13
2018-10-01T15:48:09.449Z,0.83
2018-10-01T15:50:38.979Z,0.73
2018-10-01T15:53:08.487Z,1.07
2018-10-01T15:55:37.847Z,1.40
2018-10-01T15:58:07.188Z,0.70
2018-10-01T16:00:36.447Z,0.70
2018-10-01T16:03:06.100Z,1.10
2018-10-01T16:05:35.470Z,1.10
2018-10-01T16:08:04.770Z,1.10
2018-10-01T16:10:34.365Z,1.20
2018-10-01T16:13:04.902Z,1.00
2018-10-01T16:15:34.250Z,0.80
2018-10-01T16:18:03.756Z,1.00
2018-10-01T16:20:33.070Z,1.00
2018-10-01T16:23:03.062Z,0.90
2018-10-01T16:25:32.373Z,1.30
2018-10-01T16:28:01.873Z,1.30
2018-10-01T16:30:31.199Z,0.90
2018-10-01T16:33:00.558Z,1.17
2018-10-01T16:35:29.903Z,1.07
2018-10-01T16:38:00.388Z,1.10
2018-10-01T16:40:29.886Z,1.20
2018-10-01T16:42:59.324Z,1.10
2018-10-01T16:45:28.568Z,1.30
2018-10-01T16:47:58.585Z,1.10
2018-10-01T16:50:27.940Z,1.13
2018-10-01T16:52:58.312Z,1.17
2018-10-01T16:55:28.016Z,1.30
2018-10-01T16:57:57.360Z,1.40
2018-10-01T17:00:26.666Z,0.90
2018-10-01T17:02:56.015Z,1.00
2018-10-01T17:05:25.561Z,1.17
2018-10-01T17:07:54.940Z,1.60
2018-10-01T17:10:25.314Z,2.97
2018-10-01T17:12:54.613Z,1.53
2018-10-01T17:15:24.084Z,1.40
2018-10-01T17:17:53.267Z,1.20
2018-10-01T17:20:22.643Z,1.53
2018-10-01T17:22:52.003Z,1.40
2018-10-01T17:25:21.677Z,0.93
2018-10-01T17:27:50.993Z,1.17
2018-10-01T17:30:20.381Z,0.90
2018-10-01T17:32:51.702Z,1.20
2018-10-01T17:35:21.118Z,1.30
2018-10-01T17:37:50.435Z,1.37
2018-10-01T17:40:19.702Z,1.33
2018-10-01T17:42:49.007Z,1.30
2018-10-01T17:45:18.369Z,1.33
2018-10-01T17:47:47.706Z,1.40
2018-10-01T17:50:17.075Z,1.57
2018-10-01T17:52:46.347Z,1.47
2018-10-01T17:55:15.708Z,1.90
2018-10-01T17:57:45.092Z,1.30
2018-10-01T18:00:14.424Z,1.30
2018-10-01T18:02:43.718Z,1.50
2018-10-01T18:05:13.184Z,1.40
2018-10-01T18:07:42.428Z,1.47
2018-10-01T18:10:12.111Z,1.60
2018-10-01T18:12:41.371Z,1.40
2018-10-01T18:15:10.996Z,1.80
2018-10-01T18:17:41.300Z,2.00
2018-10-01T18:20:10.666Z,2.13
2018-10-01T18:22:40.260Z,1.77
2018-10-01T18:25:10.604Z,1.80
2018-10-01T18:27:39.940Z,1.87
2018-10-01T18:30:09.376Z,1.97
2018-10-01T18:32:38.746Z,1.80
2018-10-01T18:35:08.524Z,2.33
2018-10-01T18:37:38.116Z,2.17
2018-10-01T18:40:11.524Z,2.00
2018-10-01T18:42:41.084Z,2.20
2018-10-01T18:45:10.491Z,2.00
2018-10-01T18:47:40.375Z,2.10
2018-10-01T18:50:09.740Z,1.77
2018-10-01T18:52:39.299Z,1.90
2018-10-01T18:55:09.412Z,2.47
2018-10-01T18:57:38.748Z,2.20
2018-10-01T19:00:09.879Z,2.33
2018-10-01T19:02:39.105Z,2.20
2018-10-01T19:05:10.455Z,2.00
2018-10-01T19:07:39.756Z,1.57
2018-10-01T19:10:09.906Z,1.50
2018-10-01T19:12:39.267Z,1.70
2018-10-01T19:15:10.557Z,1.77
2018-10-01T19:17:40.173Z,1.60
2018-10-01T19:20:09.827Z,1.40
2018-10-01T19:22:39.100Z,1.40
2018-10-01T19:25:08.461Z,2.00
2018-10-01T19:27:38.819Z,1.90
2018-10-01T19:30:10.235Z,1.70
2018-10-01T19:32:40.594Z,1.83
2018-10-01T19:35:09.962Z,2.00
2018-10-01T19:37:41.328Z,1.63
2018-10-01T19:40:10.681Z,1.90
2018-10-01T19:42:39.967Z,2.17
2018-10-01T19:45:09.965Z,1.70
2018-10-01T19:47:39.305Z,1.87
2018-10-01T19:50:08.649Z,1.90
2018-10-01T19:52:38.198Z,1.90
2018-10-01T19:55:08.259Z,1.97
2018-10-01T19:57:38.641Z,1.70
2018-10-01T20:00:09.323Z,1.83
2018-10-01T20:02:38.702Z,2.07
2018-10-01T20:05:08.568Z,1.97
2018-10-01T20:07:37.955Z,6.03
2018-10-01T20:10:07.518Z,3.30
2018-10-01T20:12:38.127Z,1.90
2018-10-01T20:15:07.649Z,1.93
2018-10-01T20:17:36.973Z,2.00
2018-10-01T20:20:06.339Z,2.00
2018-10-01T20:22:35.999Z,1.83
2018-10-01T20:25:06.417Z,1.80
2018-10-01T20:27:35.812Z,1.97
2018-10-01T20:30:05.446Z,1.90
2018-10-01T20:32:35.829Z,2.33
2018-10-01T20:35:05.336Z,2.00
2018-10-01T20:37:34.649Z,1.80
2018-10-01T20:40:03.976Z,1.77
2018-10-01T20:42:33.384Z,1.77
2018-10-01T20:45:02.883Z,1.87
2018-10-01T20:47:35.578Z,2.10
2018-10-01T20:50:07.427Z,1.80
2018-10-01T20:52:37.057Z,1.63
2018-10-01T20:55:06.478Z,1.60
2018-10-01T20:57:35.842Z,1.80
2018-10-01T21:00:05.526Z,1.87
2018-10-01T21:02:34.965Z,2.00
2018-10-01T21:05:04.313Z,1.67
2018-10-01T21:07:33.617Z,1.70
2018-10-01T21:10:03.170Z,1.80
2018-10-01T21:12:32.446Z,2.33
2018-10-01T21:15:01.787Z,2.00
2018-10-01T21:17:31.085Z,8.30
2018-10-01T21:20:00.739Z,2.50
2018-10-01T21:22:30.131Z,1.90
2018-10-01T21:24:59.380Z,2.20
2018-10-01T21:27:28.724Z,2.00
2018-10-01T21:29:58.009Z,1.80
2018-10-01T21:32:27.384Z,1.80
2018-10-01T21:34:56.667Z,1.63
2018-10-01T21:37:29.852Z,2.33
2018-10-01T21:40:05.070Z,1.83
2018-10-01T21:42:34.338Z,1.90
2018-10-01T21:45:03.889Z,2.07
2018-10-01T21:47:33.677Z,2.10
2018-10-01T21:50:03.106Z,1.77
2018-10-01T21:52:32.458Z,2.30
2018-10-01T21:55:01.828Z,1.70
2018-10-01T21:57:31.724Z,1.70
2018-10-01T22:00:00.971Z,1.83
2018-10-01T22:02:30.303Z,2.30
2018-10-01T22:04:59.545Z,2.00
2018-10-01T22:07:28.822Z,1.90
2018-10-01T22:09:58.096Z,1.83
2018-10-01T22:12:28.530Z,1.73
2018-10-01T22:14:57.802Z,1.90
2018-10-01T22:17:27.078Z,2.13
2018-10-01T22:19:56.384Z,2.03
2018-10-01T22:22:25.780Z,2.10
2018-10-01T22:24:55.013Z,2.10
2018-10-01T22:27:24.341Z,2.20
2018-10-01T22:29:53.887Z,2.60
2018-10-01T22:32:23.244Z,2.20
2018-10-01T22:34:52.575Z,2.10
2018-10-01T22:37:21.890Z,1.70
2018-10-01T22:39:51.341Z,2.37
2018-10-01T22:42:20.611Z,2.37
2018-10-01T22:44:49.919Z,2.47
2018-10-01T22:47:19.244Z,2.80
2018-10-01T22:49:49.083Z,2.00
2018-10-01T22:52:18.418Z,2.07
2018-10-01T22:54:48.085Z,2.10
2018-10-01T22:57:17.363Z,2.07
2018-10-01T22:59:46.685Z,1.90
2018-10-01T23:02:16.000Z,2.20
2018-10-01T23:04:45.376Z,2.03
2018-10-01T23:07:14.693Z,2.60
2018-10-01T23:09:43.970Z,1.70
2018-10-01T23:12:13.326Z,1.80
2018-10-01T23:14:42.920Z,1.90
2018-10-01T23:17:12.237Z,2.03
2018-10-01T23:19:41.570Z,2.17
2018-10-01T23:22:10.902Z,1.90
2018-10-01T23:24:40.235Z,2.73
2018-10-01T23:27:09.491Z,1.97
2018-10-01T23:29:38.837Z,1.73
2018-10-01T23:32:08.128Z,1.90
2018-10-01T23:34:37.456Z,1.83
2018-10-01T23:37:06.748Z,2.50
2018-10-01T23:39:36.056Z,2.03
2018-10-01T23:42:05.517Z,1.97
2018-10-01T23:44:34.907Z,2.40
2018-10-01T23:47:04.240Z,2.93
2018-10-01T23:49:33.544Z,2.20
2018-10-01T23:52:02.849Z,2.20
2018-10-01T23:54:32.312Z,2.33
2018-10-01T23:57:01.656Z,2.10
2018-10-01T23:59:30.977Z,2.03
